This is the latest recevied weather packets stored in our database for station/object OE6PLD-13. If no packets are shown the sender has not sent any weather packets the latest 1 day(s).
| Time | Temp. | Humidity | Pressure | Rain* | Wind** | Luminosity | Snow |
|---|---|---|---|---|---|---|---|
| 1778000011 | 20.56° C | 51% | 1012.9 hPa | 0.76 mm | 0 m/s | 55 W/m² | - |
| 1777999828 | 20.56° C | 51% | 1013.1 hPa | 0.76 mm | 1.34 m/s, 266° | 59 W/m² | - |
| 1777999644 | 21.11° C | 50% | 1013.2 hPa | 0.76 mm | 1.79 m/s, 266° | 61 W/m² | - |
| 1777999461 | 21.11° C | 50% | 1012.9 hPa | 0.76 mm | 1.79 m/s, 266° | 62 W/m² | - |
| 1777999278 | 21.11° C | 49% | 1012.7 hPa | 0.76 mm | 3.58 m/s, 266° | 64 W/m² | - |
| 1777999094 | 20.56° C | 51% | 1013.1 hPa | 0.76 mm | 0 m/s | 66 W/m² | - |
| 1777998911 | 20.56° C | 51% | 1012.8 hPa | 0.76 mm | 1.34 m/s, 266° | 68 W/m² | - |
| 1777998727 | 20.56° C | 50% | 1013.1 hPa | 0.76 mm | 0.89 m/s, 266° | 74 W/m² | - |
| 1777998544 | 20° C | 51% | 1013.3 hPa | 0.76 mm | 0.45 m/s, 266° | 81 W/m² | - |
| 1777998361 | 19.44° C | 52% | 1013.1 hPa | 0.76 mm | 3.13 m/s, 266° | 79 W/m² | - |
| 1777998177 | 19.44° C | 52% | 1013.2 hPa | 0.76 mm | 4.02 m/s, 266° | 78 W/m² | - |
| 1777997994 | 19.44° C | 53% | 1012.9 hPa | 0.76 mm | 0.89 m/s, 266° | 84 W/m² | - |
| 1777997811 | 19.44° C | 52% | 1013.3 hPa | 0.76 mm | 3.58 m/s, 266° | 80 W/m² | - |
| 1777997627 | 19.44° C | 52% | 1013.4 hPa | 0.76 mm | 7.15 m/s, 266° | 82 W/m² | - |
| 1777997444 | 19.44° C | 52% | 1013.4 hPa | 0.76 mm | 2.68 m/s, 266° | 87 W/m² | - |
| 1777997261 | 19.44° C | 52% | 1013.4 hPa | 0.76 mm | 0.89 m/s, 266° | 92 W/m² | - |
| 1777997077 | 19.44° C | 52% | 1013.4 hPa | 0.76 mm | 2.68 m/s, 266° | 97 W/m² | - |
| 1777996894 | 20° C | 51% | 1013.5 hPa | 0.76 mm | 4.92 m/s, 266° | 103 W/m² | - |
| 1777996710 | 20° C | 52% | 1013.5 hPa | 0.76 mm | 2.68 m/s, 266° | 108 W/m² | - |
| 1777996527 | 20° C | 51% | 1013.4 hPa | 0.76 mm | 1.79 m/s, 266° | 111 W/m² | - |
| 1777996344 | 20° C | 51% | 1013.6 hPa | 0.76 mm | 2.24 m/s, 266° | 113 W/m² | - |
| 1777996160 | 20° C | 51% | 1013.8 hPa | 0.76 mm | 4.02 m/s, 266° | 116 W/m² | - |
| 1777995977 | 20.56° C | 51% | 1013.5 hPa | 0.76 mm | 2.24 m/s, 266° | 118 W/m² | - |
| 1777995794 | 20.56° C | 50% | 1013.7 hPa | 0.76 mm | 0.89 m/s, 266° | 120 W/m² | - |
| 1777995611 | 20.56° C | 50% | 1013.4 hPa | 0.76 mm | 1.79 m/s, 266° | 120 W/m² | - |
* Rain latest hour (hover to see other rain measurements)
** Current wind speed in m/s (hover to see current wind gust speed)